Time;durP1;ratioP1;P1;durP2;ratioP2;P2;SDS_P1;SDS_P2;PMS_P1;PMS_P2;Temp;Humidity;BMP_temperature;BMP_pressure;BME280_temperature;BME280_humidity;BME280_pressure;Samples;Min_cycle;Max_cycle;Signal;HPM_P1;HPM_P2
2022/11/26 14:25:14;;;;;;;112.05;77.45;;;;;;;5.52;85.78;95251.61;1809701;78;22738;-52
2022/11/26 14:27:52;;;;;;;115.72;79.17;;;;;;;5.49;84.71;95260.03;1760997;80;21115;-53
2022/11/26 14:30:25;;;;;;;106.00;70.30;;;;;;;5.38;84.02;95264.02;1753953;80;21914;-54
2022/11/26 14:33:18;;;;;;;120.82;73.05;;;;;;;5.27;84.56;95261.95;1758809;80;20984;-52
2022/11/26 14:35:54;;;;;;;109.27;69.80;;;;;;;5.19;84.19;95256.94;1633374;85;21060;-52
2022/11/26 14:38:30;;;;;;;119.72;69.47;;;;;;;5.13;84.68;95262.03;1645913;84;21127;-50
2022/11/26 14:40:59;;;;;;;61.65;37.15;;;;;;;5.11;83.97;95261.66;1679976;84;21073;-53
2022/11/26 14:43:27;;;;;;;70.60;45.55;;;;;;;4.91;83.69;95262.55;1678303;83;21240;-50
2022/11/26 14:46:04;;;;;;;127.32;70.40;;;;;;;4.79;83.95;95269.23;1700594;83;21071;-52
2022/11/26 14:48:33;;;;;;;127.50;82.95;;;;;;;4.73;84.40;95284.46;1640813;86;21108;-50
2022/11/26 14:51:00;;;;;;;108.63;72.35;;;;;;;4.75;84.86;95275.91;1620326;88;21889;-51
2022/11/26 14:53:30;;;;;;;148.57;89.77;;;;;;;4.77;84.83;95279.77;1669480;86;21123;-51
2022/11/26 14:55:57;;;;;;;162.18;92.05;;;;;;;4.80;84.76;95284.41;1669601;86;21136;-50
2022/11/26 14:58:39;;;;;;;179.05;100.27;;;;;;;4.84;84.90;95285.20;1669635;85;20985;-50
2022/11/26 15:01:19;;;;;;;160.88;97.15;;;;;;;4.87;84.52;95289.85;1688646;83;21511;-50
2022/11/26 15:04:00;;;;;;;148.85;94.50;;;;;;;4.83;84.58;95295.88;1695863;84;21057;-51
2022/11/26 15:06:36;;;;;;;150.62;88.78;;;;;;;4.82;84.46;95296.30;1695933;84;21085;-52
2022/11/26 15:09:14;;;;;;;174.20;99.57;;;;;;;4.82;84.69;95303.11;1693618;84;21146;-50
2022/11/26 15:11:49;;;;;;;194.22;104.60;;;;;;;4.82;85.15;95287.52;1695975;81;21103;-52
2022/11/26 15:14:42;;;;;;;187.92;104.95;;;;;;;4.98;85.41;95301.46;1634399;86;21726;-52
2022/11/26 15:17:18;;;;;;;212.02;116.50;;;;;;;5.14;84.88;95296.31;1643092;87;21132;-52
2022/11/26 15:19:45;;;;;;;229.57;127.42;;;;;;;5.25;84.54;95303.84;1639097;87;20984;-52
2022/11/26 15:22:37;;;;;;;239.55;133.55;;;;;;;5.30;84.20;95307.52;1667327;84;21279;-51
2022/11/26 15:25:12;;;;;;;204.13;118.10;;;;;;;5.36;83.85;95316.81;1630412;86;21471;-51
2022/11/26 15:27:42;;;;;;;201.90;115.55;;;;;;;5.38;83.21;95311.77;1621637;88;21019;-51
2022/11/26 15:30:27;;;;;;;197.68;113.30;;;;;;;5.31;83.00;95312.58;1613624;88;21061;-51
2022/11/26 15:33:04;;;;;;;178.45;105.22;;;;;;;5.36;83.35;95315.45;1603108;89;21102;-51
2022/11/26 15:35:32;;;;;;;151.82;90.42;;;;;;;5.34;82.34;95313.71;1602777;89;21833;-51
2022/11/26 15:37:59;;;;;;;141.10;82.78;;;;;;;5.24;82.64;95315.33;1602373;89;21000;-51
2022/11/26 15:40:32;;;;;;;141.73;80.65;;;;;;;5.27;82.58;95324.08;1585249;89;21084;-51
2022/11/26 15:43:02;;;;;;;121.60;69.65;;;;;;;5.24;82.15;95323.52;1556116;91;21125;-52
2022/11/26 15:45:37;;;;;;;153.78;91.32;;;;;;;5.25;82.26;95307.94;1528328;94;21050;-51
2022/11/26 15:48:04;;;;;;;148.00;86.28;;;;;;;5.19;81.94;95317.70;1543211;93;21941;-51
2022/11/26 15:50:34;;;;;;;144.50;85.83;;;;;;;5.19;82.16;95317.70;1531568;93;21077;-51
2022/11/26 15:53:05;;;;;;;132.37;81.40;;;;;;;5.22;82.64;95321.59;1531577;93;21142;-50
2022/11/26 15:55:34;;;;;;;118.80;73.25;;;;;;;5.32;82.81;95320.16;1528367;94;21553;-51
2022/11/26 15:58:04;;;;;;;198.02;123.45;;;;;;;5.35;82.07;95316.62;1528504;92;21486;-50
2022/11/26 20:07:17;;;;;;;108.05;57.50;;;;;;;3.25;91.72;95420.29;1811729;78;21640;-44
2022/11/26 20:09:43;;;;;;;109.10;60.03;;;;;;;3.30;91.64;95425.34;1796033;78;21198;-44
2022/11/26 20:12:10;;;;;;;102.80;57.98;;;;;;;3.40;92.02;95427.33;1805379;79;20990;-44
2022/11/26 20:14:37;;;;;;;105.52;60.15;;;;;;;3.50;91.82;95430.08;1796867;78;21580;-44
2022/11/26 20:17:03;;;;;;;92.35;55.65;;;;;;;3.57;92.01;95425.43;1798011;78;20975;-44
2022/11/26 20:19:31;;;;;;;96.87;57.90;;;;;;;3.68;91.65;95428.92;1787215;79;20939;-44
2022/11/26 20:21:57;;;;;;;112.62;64.87;;;;;;;3.76;91.24;95427.79;1791265;79;21236;-44
2022/11/26 20:24:24;;;;;;;114.25;65.78;;;;;;;3.79;90.86;95427.58;1779424;80;21075;-44
2022/11/26 20:26:52;;;;;;;108.55;62.62;;;;;;;3.80;90.35;95432.65;1790006;78;21562;-43
2022/11/26 20:29:19;;;;;;;109.05;63.63;;;;;;;3.80;90.33;95435.37;1798051;78;21032;-43
2022/11/26 20:31:49;;;;;;;113.57;66.95;;;;;;;3.84;90.52;95434.78;1811435;78;21001;-43
2022/11/26 20:34:17;;;;;;;123.58;70.17;;;;;;;3.90;90.20;95433.23;1795234;79;21219;-43
2022/11/26 20:36:44;;;;;;;117.37;65.90;;;;;;;3.94;90.10;95439.47;1792556;78;21064;-44
2022/11/26 20:39:17;;;;;;;104.35;61.28;;;;;;;4.02;90.01;95438.30;1780394;79;21456;-44
2022/11/26 20:41:46;;;;;;;104.65;61.20;;;;;;;4.06;89.56;95435.59;1794636;78;21076;-42
2022/11/26 20:44:12;;;;;;;109.27;65.15;;;;;;;4.11;89.37;95433.27;1787398;79;21408;-42
2022/11/26 20:46:39;;;;;;;93.92;55.88;;;;;;;4.11;88.87;95422.94;1762767;80;22080;-43
2022/11/26 20:49:06;;;;;;;129.60;74.72;;;;;;;4.05;88.51;95422.55;1765225;79;21015;-43
2022/11/26 20:51:34;;;;;;;130.47;77.90;;;;;;;4.01;88.63;95431.30;1777172;79;21033;-43
2022/11/26 20:54:01;;;;;;;104.38;60.63;;;;;;;4.03;88.87;95434.41;1787688;79;21026;-44
2022/11/26 20:56:28;;;;;;;100.62;59.18;;;;;;;4.11;88.88;95432.47;1793485;78;20986;-45
2022/11/26 20:58:54;;;;;;;99.62;59.27;;;;;;;4.21;88.97;95436.55;1758937;80;21319;-44
2022/11/26 21:01:24;;;;;;;66.33;42.88;;;;;;;4.28;88.47;95435.17;1764677;80;20964;-43
2022/11/26 21:03:51;;;;;;;96.60;54.18;;;;;;;4.35;88.26;95439.27;1749458;80;21564;-44
2022/11/26 21:06:21;;;;;;;121.87;67.27;;;;;;;4.35;87.59;95433.83;1752620;80;21006;-43
2022/11/26 21:08:48;;;;;;;106.25;59.90;;;;;;;4.32;87.55;95438.70;1754420;80;21082;-44
2022/11/26 21:11:15;;;;;;;96.05;55.95;;;;;;;4.36;87.86;95431.30;1725325;81;21282;-43
2022/11/26 21:13:42;;;;;;;94.97;56.55;;;;;;;4.46;87.46;95441.98;1757061;80;20954;-44
2022/11/26 21:16:13;;;;;;;91.17;55.45;;;;;;;4.53;87.24;95441.97;1768848;80;21003;-44
2022/11/26 21:18:40;;;;;;;100.10;55.67;;;;;;;4.57;86.78;95439.44;1747025;80;21002;-44
2022/11/26 21:21:12;;;;;;;119.90;70.52;;;;;;;4.58;86.36;95445.08;1758522;80;20954;-44
2022/11/26 21:23:41;;;;;;;108.75;64.85;;;;;;;4.57;86.28;95444.89;1752316;80;21239;-43
2022/11/26 21:26:09;;;;;;;99.22;59.42;;;;;;;4.61;86.30;95449.73;1736608;81;20982;-43
2022/11/26 21:28:36;;;;;;;91.02;55.05;;;;;;;4.66;86.18;95441.19;1763439;80;21550;-43
2022/11/26 21:31:10;;;;;;;81.63;51.95;;;;;;;4.74;86.15;95433.17;1759701;80;21010;-44
2022/11/26 21:33:36;;;;;;;92.97;56.05;;;;;;;4.82;85.49;95431.98;1762001;80;21014;-44
2022/11/26 21:36:09;;;;;;;87.20;55.38;;;;;;;4.83;85.31;95433.53;1761937;80;21149;-44
2022/11/26 21:38:36;;;;;;;90.70;58.33;;;;;;;4.83;84.82;95441.70;1756869;80;21046;-44
2022/11/26 21:41:05;;;;;;;118.42;71.33;;;;;;;4.86;85.14;95437.43;1756778;80;21605;-44
2022/11/26 21:43:31;;;;;;;127.50;73.67;;;;;;;4.96;84.79;95435.27;1749697;80;21542;-43
2022/11/26 21:46:06;;;;;;;141.97;77.40;;;;;;;4.98;84.12;95442.47;1766471;80;21470;-43
2022/11/26 21:48:34;;;;;;;138.65;79.20;;;;;;;4.95;83.86;95439.94;1774464;80;22078;-42
2022/11/26 21:51:14;;;;;;;146.80;83.62;;;;;;;5.00;84.11;95438.76;1760993;80;21088;-43
2022/11/26 21:53:41;;;;;;;147.10;86.55;;;;;;;4.94;83.52;95444.44;1766329;80;20986;-44
2022/11/26 21:56:15;;;;;;;147.02;84.30;;;;;;;4.96;84.07;95440.72;1752233;81;20951;-44
2022/11/26 21:58:42;;;;;;;136.22;77.82;;;;;;;4.98;83.33;95437.78;1716861;81;21003;-43
2022/11/26 22:01:17;;;;;;;131.00;75.72;;;;;;;4.91;83.01;95445.98;1714171;82;21322;-43
